createdAt,value
2022-09-10T00:00:08.607Z,64.47
2022-09-10T00:02:36.338Z,64.50
2022-09-10T00:05:02.920Z,64.60
2022-09-10T00:07:32.006Z,64.91
2022-09-10T00:09:58.593Z,65.30
2022-09-10T00:12:25.011Z,65.67
2022-09-10T00:15:04.908Z,65.29
2022-09-10T00:17:32.601Z,65.41
2022-09-10T00:20:01.945Z,65.16
2022-09-10T00:22:28.363Z,65.98
2022-09-10T00:24:55.439Z,66.23
2022-09-10T00:27:21.844Z,65.66
2022-09-10T00:30:08.179Z,65.72
2022-09-10T00:35:59.946Z,65.06
2022-09-10T00:38:31.564Z,65.58
2022-09-10T00:41:04.936Z,65.76
2022-09-10T00:43:48.906Z,65.36
2022-09-10T00:46:20.399Z,65.08
2022-09-10T00:48:46.862Z,65.14
2022-09-10T00:51:23.118Z,66.27
2022-09-10T00:53:50.827Z,66.28
2022-09-10T00:56:17.663Z,65.74
2022-09-10T00:58:45.788Z,65.08
2022-09-10T01:01:12.272Z,64.97
2022-09-10T01:03:38.934Z,64.34
2022-09-10T01:06:42.969Z,63.84
2022-09-10T01:09:29.124Z,63.74
2022-09-10T01:12:04.917Z,63.12
2022-09-10T01:14:37.697Z,62.38
2022-09-10T01:17:11.290Z,61.26
2022-09-10T01:19:51.793Z,60.91
2022-09-10T01:22:18.183Z,60.91
2022-09-10T01:24:45.016Z,60.91
2022-09-10T01:27:29.792Z,61.25
2022-09-10T01:30:14.774Z,60.98
2022-09-10T01:33:04.188Z,61.08
2022-09-10T01:35:31.174Z,61.55
2022-09-10T01:38:00.093Z,61.34
2022-09-10T01:40:30.070Z,62.06
2022-09-10T01:43:01.242Z,62.29
2022-09-10T01:45:28.780Z,62.16
2022-09-10T01:50:29.742Z,62.07
2022-09-10T01:52:56.536Z,61.80
2022-09-10T01:55:44.641Z,61.13
2022-09-10T01:58:21.895Z,61.08
2022-09-10T02:00:56.002Z,61.28
2022-09-10T02:03:24.693Z,62.58
2022-09-10T02:05:53.909Z,62.44
2022-09-10T02:08:26.176Z,61.51
2022-09-10T02:11:27.716Z,62.51
2022-09-10T02:14:14.240Z,63.40
2022-09-10T02:16:43.201Z,63.15
2022-09-10T02:19:10.426Z,63.73
2022-09-10T02:21:37.480Z,63.96
2022-09-10T02:24:05.897Z,63.87
2022-09-10T02:26:37.076Z,63.29
2022-09-10T02:29:22.192Z,63.06
2022-09-10T02:31:48.666Z,62.94
2022-09-10T02:34:16.075Z,62.92
2022-09-10T02:36:43.681Z,62.74
2022-09-10T02:39:10.104Z,62.64
2022-09-10T02:41:38.102Z,62.69
2022-09-10T02:44:16.399Z,62.14
2022-09-10T02:47:03.203Z,63.59
2022-09-10T02:49:34.667Z,63.11
2022-09-10T02:52:02.862Z,63.29
2022-09-10T02:54:29.484Z,63.07
2022-09-10T02:56:56.762Z,63.17
2022-09-10T02:59:23.723Z,64.17
2022-09-10T03:01:50.173Z,64.12
2022-09-10T03:04:16.861Z,64.00
2022-09-10T03:06:43.509Z,64.02
2022-09-10T03:09:10.053Z,64.03
2022-09-10T03:11:40.530Z,63.74
2022-09-10T03:14:09.090Z,64.26
2022-09-10T03:16:35.709Z,64.11
2022-09-10T03:19:17.913Z,64.06
2022-09-10T03:21:46.233Z,63.17
2022-09-10T03:24:15.224Z,63.34
2022-09-10T03:26:43.388Z,64.20
2022-09-10T03:29:10.128Z,63.86
2022-09-10T03:31:36.935Z,62.69
2022-09-10T03:37:49.356Z,62.11
2022-09-10T03:40:16.171Z,62.02
2022-09-10T03:42:42.723Z,62.09
2022-09-10T03:45:09.445Z,62.15
2022-09-10T03:47:39.489Z,62.07
2022-09-10T03:50:06.469Z,61.90
2022-09-10T03:52:32.909Z,61.35
2022-09-10T03:54:59.382Z,62.14
2022-09-10T03:57:26.227Z,61.81
2022-09-10T03:59:52.707Z,61.65
2022-09-10T04:02:19.159Z,60.72
2022-09-10T04:04:45.596Z,60.32
2022-09-10T04:07:30.674Z,60.21
2022-09-10T04:09:57.084Z,59.69
2022-09-10T04:12:23.985Z,59.99
2022-09-10T04:14:50.408Z,59.22
2022-09-10T04:17:18.059Z,59.54
2022-09-10T04:19:44.707Z,59.55
2022-09-10T04:22:11.131Z,59.91
2022-09-10T04:25:16.357Z,58.68
2022-09-10T04:28:02.571Z,58.52
2022-09-10T04:30:29.040Z,58.65
2022-09-10T04:32:55.482Z,58.81
2022-09-10T04:35:21.892Z,58.45
2022-09-10T04:37:48.324Z,57.99
2022-09-10T04:40:14.828Z,58.29
2022-09-10T04:42:41.295Z,57.75
2022-09-10T04:45:07.979Z,57.49
2022-09-10T04:47:34.691Z,57.12
2022-09-10T04:50:01.234Z,57.08
2022-09-10T04:52:27.926Z,58.11
2022-09-10T04:54:54.338Z,57.73
2022-09-10T04:57:40.616Z,57.23
2022-09-10T05:00:50.931Z,57.12
2022-09-10T05:03:23.637Z,58.29
2022-09-10T05:05:51.046Z,57.88
2022-09-10T05:08:17.548Z,58.26
2022-09-10T05:10:45.329Z,58.20
2022-09-10T05:13:11.721Z,58.41
2022-09-10T05:15:40.335Z,58.04
2022-09-10T05:18:12.021Z,57.60
2022-09-10T05:20:38.410Z,57.25
2022-09-10T05:23:04.809Z,57.39
2022-09-10T05:25:31.246Z,56.98
2022-09-10T05:27:57.681Z,56.97
2022-09-10T05:30:24.752Z,57.99
2022-09-10T05:36:33.244Z,57.77
2022-09-10T05:39:00.384Z,58.11
2022-09-10T05:41:28.172Z,57.11
2022-09-10T05:43:54.858Z,57.00
2022-09-10T05:46:22.313Z,56.52
2022-09-10T05:48:49.110Z,56.70
2022-09-10T05:51:34.333Z,56.03
2022-09-10T05:54:00.761Z,57.16
2022-09-10T05:56:27.197Z,56.49
2022-09-10T05:58:53.744Z,56.20
2022-09-10T06:01:20.212Z,56.07
2022-09-10T06:03:46.649Z,55.42
2022-09-10T06:07:03.168Z,55.75
2022-09-10T06:09:53.671Z,55.77
2022-09-10T06:12:20.179Z,55.61
2022-09-10T06:14:46.601Z,57.55
2022-09-10T06:17:13.044Z,56.65
2022-09-10T06:19:39.981Z,56.73
2022-09-10T06:22:06.414Z,56.99
2022-09-10T06:24:32.844Z,57.53
2022-09-10T06:27:18.076Z,57.38
2022-09-10T06:29:44.524Z,57.46
2022-09-10T06:32:10.956Z,57.70
2022-09-10T06:34:37.351Z,57.47
2022-09-10T06:37:04.230Z,56.74
2022-09-10T06:39:30.719Z,56.55
2022-09-10T06:42:22.215Z,57.16
2022-09-10T06:50:50.095Z,57.79
2022-09-10T06:53:16.773Z,58.50
2022-09-10T06:55:43.214Z,58.91
2022-09-10T06:58:09.679Z,58.44
2022-09-10T07:00:39.283Z,59.16
2022-09-10T07:03:05.694Z,59.83
2022-09-10T07:05:35.505Z,60.07
2022-09-10T07:08:02.101Z,60.02
2022-09-10T07:10:31.294Z,61.37
2022-09-10T07:12:57.896Z,61.19
2022-09-10T07:15:24.288Z,61.40
2022-09-10T07:18:00.366Z,61.43
2022-09-10T07:20:28.728Z,62.33
2022-09-10T07:22:56.204Z,63.85
2022-09-10T07:25:23.671Z,66.04
2022-09-10T07:27:50.838Z,67.11
2022-09-10T07:30:17.390Z,67.61
2022-09-10T07:36:21.550Z,67.75
2022-09-10T07:38:51.307Z,66.95
2022-09-10T07:41:18.673Z,67.33
2022-09-10T07:43:45.162Z,67.49
2022-09-10T07:46:12.961Z,68.33
2022-09-10T07:48:40.346Z,69.01
2022-09-10T07:51:08.268Z,68.81
2022-09-10T07:53:34.824Z,68.69
2022-09-10T07:56:02.102Z,67.94
2022-09-10T07:58:29.539Z,67.25
2022-09-10T08:00:56.021Z,67.05
2022-09-10T08:03:22.543Z,67.14
2022-09-10T08:05:49.200Z,66.54
2022-09-10T08:08:16.174Z,66.54
2022-09-10T08:10:42.777Z,67.27
2022-09-10T08:13:12.319Z,66.43
2022-09-10T08:15:43.712Z,66.70
2022-09-10T08:18:11.166Z,67.10
2022-09-10T08:20:40.090Z,66.71
2022-09-10T08:23:07.206Z,66.69
2022-09-10T08:25:33.732Z,66.22
2022-09-10T08:28:00.912Z,65.39
2022-09-10T08:30:27.952Z,65.58
2022-09-10T08:32:54.776Z,64.72
2022-09-10T08:35:21.172Z,63.98
2022-09-10T08:37:47.881Z,62.90
2022-09-10T08:40:14.898Z,63.01
2022-09-10T08:42:46.090Z,62.37
2022-09-10T08:45:24.129Z,61.52
2022-09-10T08:47:53.589Z,61.08
2022-09-10T08:50:25.921Z,60.64
2022-09-10T08:52:55.985Z,60.80
2022-09-10T08:55:25.752Z,60.95
2022-09-10T08:57:55.630Z,59.70
2022-09-10T09:00:23.886Z,60.10
2022-09-10T09:02:56.736Z,58.80
2022-09-10T09:05:24.130Z,58.54
2022-09-10T09:07:51.200Z,59.00
2022-09-10T09:10:32.931Z,58.23
2022-09-10T09:13:11.599Z,57.57
2022-09-10T09:16:04.354Z,55.98
2022-09-10T09:18:30.860Z,56.64
2022-09-10T09:21:01.802Z,56.46
2022-09-10T09:23:35.366Z,56.24
2022-09-10T09:26:04.377Z,56.55
2022-09-10T09:28:33.949Z,56.22
2022-09-10T09:31:09.343Z,55.62
2022-09-10T09:33:36.561Z,56.05
2022-09-10T09:36:04.897Z,55.18
2022-09-10T09:38:31.320Z,55.32
2022-09-10T09:41:01.840Z,55.49
2022-09-10T09:43:40.864Z,54.85
2022-09-10T09:46:16.526Z,54.86
2022-09-10T09:48:43.423Z,54.14
2022-09-10T09:51:13.836Z,54.05
2022-09-10T09:53:42.346Z,53.23
2022-09-10T09:56:15.359Z,52.73
2022-09-10T09:58:47.079Z,52.57
2022-09-10T10:01:15.509Z,51.92
2022-09-10T10:03:52.207Z,51.42
2022-09-10T10:06:38.869Z,51.39
2022-09-10T10:09:06.667Z,50.87
2022-09-10T10:11:41.997Z,51.05
2022-09-10T10:14:39.229Z,50.44
2022-09-10T10:17:26.026Z,50.29
2022-09-10T10:20:12.937Z,50.32
2022-09-10T10:22:40.629Z,49.90
2022-09-10T10:25:27.052Z,49.80
2022-09-10T10:27:54.442Z,49.15
2022-09-10T10:30:22.823Z,48.39
2022-09-10T10:33:02.961Z,48.08
2022-09-10T10:35:46.484Z,47.35
2022-09-10T10:38:18.872Z,46.83
2022-09-10T10:41:02.256Z,46.00
2022-09-10T10:43:47.778Z,46.22
2022-09-10T10:46:21.540Z,45.96
2022-09-10T10:49:06.659Z,45.69
2022-09-10T10:51:36.064Z,47.19
2022-09-10T10:54:20.335Z,45.16
2022-09-10T10:57:05.791Z,45.01
2022-09-10T10:59:39.015Z,43.63
2022-09-10T11:02:14.094Z,41.78
2022-09-10T11:04:51.105Z,44.95
2022-09-10T11:07:20.586Z,42.17
2022-09-10T11:09:46.962Z,42.32
2022-09-10T11:12:20.465Z,42.76
2022-09-10T11:14:59.443Z,42.95
2022-09-10T11:17:28.708Z,42.18
2022-09-10T11:20:28.938Z,41.70
2022-09-10T11:23:05.482Z,41.51
2022-09-10T11:25:37.065Z,41.12
2022-09-10T11:28:15.687Z,41.39
2022-09-10T11:30:45.860Z,40.43
2022-09-10T11:33:18.653Z,40.23
2022-09-10T11:35:53.380Z,39.50
2022-09-10T11:38:28.099Z,40.00
2022-09-10T11:41:00.737Z,38.65
2022-09-10T11:43:33.343Z,39.17
2022-09-10T11:46:08.182Z,39.37
2022-09-10T11:48:41.888Z,38.92
2022-09-10T11:51:13.517Z,38.58
2022-09-10T11:53:41.148Z,38.60
2022-09-10T11:56:27.253Z,38.89
2022-09-10T11:58:59.479Z,38.76
2022-09-10T12:01:44.761Z,38.67
2022-09-10T12:04:47.662Z,37.83
2022-09-10T12:07:17.467Z,37.54
2022-09-10T12:09:50.109Z,36.99
2022-09-10T12:12:22.520Z,37.06
2022-09-10T12:14:49.020Z,36.31
2022-09-10T12:17:15.439Z,36.33
2022-09-10T12:19:47.983Z,35.76
2022-09-10T12:22:20.514Z,35.47
2022-09-10T12:25:07.354Z,35.86
2022-09-10T12:27:57.911Z,35.32
2022-09-10T12:30:36.304Z,36.19
2022-09-10T12:33:24.721Z,36.02
2022-09-10T12:35:51.708Z,36.45
2022-09-10T12:38:41.262Z,35.83
2022-09-10T12:41:14.788Z,35.98
2022-09-10T12:43:41.531Z,36.20
2022-09-10T12:46:12.668Z,36.15
2022-09-10T12:48:44.958Z,36.02
2022-09-10T12:51:18.000Z,36.03
2022-09-10T12:53:50.665Z,35.93
2022-09-10T12:56:17.090Z,36.37
2022-09-10T12:59:10.530Z,36.90
2022-09-10T13:01:46.316Z,37.32
2022-09-10T13:04:26.038Z,36.87
2022-09-10T13:06:59.366Z,37.09
2022-09-10T13:09:28.436Z,36.74
2022-09-10T13:11:59.508Z,37.16
2022-09-10T13:14:38.196Z,36.81
2022-09-10T13:17:04.704Z,36.18
2022-09-10T13:19:31.117Z,36.42
2022-09-10T13:21:58.028Z,36.54
2022-09-10T13:24:33.874Z,36.09
2022-09-10T13:27:03.273Z,36.81
2022-09-10T13:29:32.540Z,36.88
2022-09-10T13:32:14.764Z,37.14
2022-09-10T13:35:01.489Z,37.79
2022-09-10T13:37:40.131Z,37.77
2022-09-10T13:40:19.702Z,37.67
2022-09-10T13:42:46.086Z,37.41
2022-09-10T13:45:21.851Z,36.85
2022-09-10T13:47:51.327Z,36.40
2022-09-10T13:50:17.744Z,36.89
2022-09-10T13:52:45.719Z,38.32
2022-09-10T13:55:18.535Z,37.16
2022-09-10T13:57:47.603Z,36.98
2022-09-10T14:00:14.466Z,36.66
2022-09-10T14:02:42.010Z,36.32
2022-09-10T14:05:23.552Z,36.21
2022-09-10T14:07:51.136Z,36.50
2022-09-10T14:10:18.645Z,36.41
2022-09-10T14:12:45.865Z,36.46
2022-09-10T14:15:17.094Z,36.03
2022-09-10T14:17:50.732Z,36.23
2022-09-10T14:20:23.562Z,36.63
2022-09-10T14:22:58.849Z,35.99
2022-09-10T14:25:36.177Z,36.42
2022-09-10T14:28:24.244Z,36.53
2022-09-10T14:30:51.765Z,36.08
2022-09-10T14:33:21.319Z,35.99
2022-09-10T14:35:51.537Z,35.79
2022-09-10T14:38:21.036Z,36.26
2022-09-10T14:40:48.190Z,35.83
2022-09-10T14:43:27.441Z,35.70
2022-09-10T14:45:55.434Z,35.91
2022-09-10T14:48:32.871Z,36.28
2022-09-10T14:51:10.657Z,36.43
2022-09-10T14:53:37.499Z,36.23
2022-09-10T14:56:05.211Z,35.68
2022-09-10T14:58:31.786Z,34.86
2022-09-10T15:00:58.687Z,35.49
2022-09-10T15:03:25.201Z,35.48
2022-09-10T15:05:51.615Z,34.89
2022-09-10T15:08:18.031Z,35.12
2022-09-10T15:10:44.454Z,35.69
2022-09-10T15:13:14.801Z,35.35
2022-09-10T15:15:41.252Z,34.95
2022-09-10T15:18:17.326Z,34.90
2022-09-10T15:20:43.741Z,35.62
2022-09-10T15:23:11.571Z,35.13
2022-09-10T15:25:44.278Z,35.60
2022-09-10T15:28:10.684Z,35.49
2022-09-10T15:30:37.166Z,35.44
2022-09-10T15:33:04.622Z,36.28
2022-09-10T15:35:31.162Z,35.34
2022-09-10T15:37:58.021Z,35.43
2022-09-10T15:40:24.640Z,35.16
2022-09-10T15:42:54.177Z,35.04
2022-09-10T15:45:21.036Z,35.55
2022-09-10T15:47:47.461Z,35.65
2022-09-10T15:50:16.264Z,35.48
2022-09-10T15:52:44.944Z,35.16
2022-09-10T15:55:12.351Z,35.53
2022-09-10T15:57:40.352Z,36.37
2022-09-10T16:00:07.581Z,35.54
2022-09-10T16:02:34.137Z,35.57
2022-09-10T16:05:03.910Z,35.55
2022-09-10T16:07:30.484Z,35.61
2022-09-10T16:09:58.794Z,35.34
2022-09-10T16:12:27.911Z,35.12
2022-09-10T16:14:54.655Z,35.49
2022-09-10T16:17:21.089Z,35.53
2022-09-10T16:19:47.511Z,35.83
2022-09-10T16:22:16.447Z,35.87
2022-09-10T16:24:46.450Z,36.34
2022-09-10T16:27:12.940Z,36.32
2022-09-10T16:29:46.104Z,36.60
2022-09-10T16:32:12.962Z,36.43
2022-09-10T16:34:39.738Z,36.72
2022-09-10T16:37:06.242Z,36.80
2022-09-10T16:39:32.801Z,36.72
2022-09-10T16:41:59.392Z,36.98
2022-09-10T16:47:00.624Z,37.07
2022-09-10T16:49:27.487Z,37.59
2022-09-10T16:51:54.384Z,37.84
2022-09-10T16:54:46.279Z,37.89
2022-09-10T16:57:12.697Z,38.05
2022-09-10T16:59:39.094Z,38.36
2022-09-10T17:02:07.513Z,38.78
2022-09-10T17:04:34.642Z,39.19
2022-09-10T17:07:01.145Z,39.10
2022-09-10T17:09:45.703Z,39.42
2022-09-10T17:15:30.280Z,39.52
2022-09-10T17:17:57.224Z,39.64
2022-09-10T17:20:23.626Z,40.15
2022-09-10T17:22:50.085Z,40.05
2022-09-10T17:25:16.819Z,40.15
2022-09-10T17:27:43.286Z,39.97
2022-09-10T17:30:09.929Z,39.60
2022-09-10T17:32:36.409Z,39.07
2022-09-10T17:35:02.853Z,38.92
2022-09-10T17:37:29.339Z,38.71
2022-09-10T17:39:55.919Z,38.28
2022-09-10T17:42:22.398Z,38.25
2022-09-10T17:44:49.435Z,38.00
2022-09-10T17:47:15.926Z,37.92
2022-09-10T17:49:43.532Z,38.10
2022-09-10T17:52:10.185Z,37.75
2022-09-10T17:54:36.672Z,37.80
2022-09-10T17:57:03.326Z,37.72
2022-09-10T17:59:48.173Z,38.14
2022-09-10T18:02:15.559Z,38.06
2022-09-10T18:04:42.301Z,38.21
2022-09-10T18:07:11.837Z,38.30
2022-09-10T18:09:38.331Z,38.47
2022-09-10T18:12:04.862Z,38.67
2022-09-10T18:20:49.812Z,39.51
2022-09-10T18:23:16.227Z,39.64
2022-09-10T18:25:47.909Z,39.61
2022-09-10T18:28:16.193Z,39.69
2022-09-10T18:30:42.692Z,39.84
2022-09-10T18:33:21.140Z,39.84
2022-09-10T18:35:47.564Z,39.75
2022-09-10T18:38:13.972Z,39.84
2022-09-10T18:40:42.497Z,40.07
2022-09-10T18:43:09.064Z,40.18
2022-09-10T18:45:35.512Z,40.33
2022-09-10T18:48:02.036Z,40.70
2022-09-10T18:51:10.401Z,41.07
2022-09-10T18:53:53.883Z,40.94
2022-09-10T18:56:23.328Z,41.21
2022-09-10T18:58:55.719Z,41.05
2022-09-10T19:01:23.119Z,41.65
2022-09-10T19:03:50.019Z,42.01
2022-09-10T19:06:17.965Z,42.22
2022-09-10T19:08:48.952Z,42.28
2022-09-10T19:11:19.094Z,42.86
2022-09-10T19:13:52.703Z,42.92
2022-09-10T19:16:22.735Z,42.90
2022-09-10T19:18:52.840Z,42.90
2022-09-10T19:21:20.286Z,43.34
2022-09-10T19:23:47.606Z,43.71
2022-09-10T19:26:14.169Z,43.94
2022-09-10T19:28:40.876Z,44.00
2022-09-10T19:31:08.190Z,44.05
2022-09-10T19:33:36.324Z,44.52
2022-09-10T19:36:14.336Z,45.26
2022-09-10T19:38:41.223Z,45.07
2022-09-10T19:41:14.306Z,45.27
2022-09-10T19:43:41.226Z,45.04
2022-09-10T19:46:10.362Z,44.98
2022-09-10T19:48:37.338Z,44.91
2022-09-10T19:51:05.198Z,44.84
2022-09-10T19:53:33.282Z,45.08
2022-09-10T19:56:03.605Z,45.18
2022-09-10T19:58:30.143Z,45.30
2022-09-10T20:00:56.587Z,45.55
2022-09-10T20:03:23.024Z,45.70
2022-09-10T20:05:49.549Z,46.60
2022-09-10T20:08:15.982Z,46.05
2022-09-10T20:10:49.426Z,46.49
2022-09-10T20:13:17.786Z,46.18
2022-09-10T20:15:45.590Z,46.24
2022-09-10T20:18:12.338Z,46.33
2022-09-10T20:20:38.826Z,46.70
2022-09-10T20:23:05.276Z,46.78
2022-09-10T20:25:31.975Z,46.89
2022-09-10T20:28:01.312Z,47.15
2022-09-10T20:30:27.753Z,46.99
2022-09-10T20:32:56.647Z,47.14
2022-09-10T20:35:23.069Z,47.28
2022-09-10T20:37:51.745Z,47.16
2022-09-10T20:40:18.295Z,47.42
2022-09-10T20:42:44.763Z,47.42
2022-09-10T20:45:11.401Z,47.42
2022-09-10T20:50:13.208Z,47.70
2022-09-10T20:52:40.290Z,47.85
2022-09-10T20:55:07.078Z,47.92
2022-09-10T20:57:33.494Z,47.95
2022-09-10T21:00:00.182Z,48.05
2022-09-10T21:02:26.873Z,48.19
2022-09-10T21:04:53.517Z,48.52
2022-09-10T21:07:20.458Z,48.48
2022-09-10T21:09:46.876Z,48.91
2022-09-10T21:12:13.479Z,48.87
2022-09-10T21:14:39.937Z,48.79
2022-09-10T21:17:06.388Z,48.80
2022-09-10T21:19:33.671Z,48.95
2022-09-10T21:22:00.201Z,49.12
2022-09-10T21:24:45.201Z,48.71
2022-09-10T21:27:11.661Z,48.58
2022-09-10T21:29:38.366Z,48.82
2022-09-10T21:32:04.839Z,48.65
2022-09-10T21:34:32.414Z,48.39
2022-09-10T21:36:58.804Z,48.54
2022-09-10T21:42:50.197Z,48.34
2022-09-10T21:48:01.840Z,48.49
2022-09-10T21:50:28.628Z,48.71
2022-09-10T21:52:55.019Z,49.04
2022-09-10T21:55:21.538Z,48.64
2022-09-10T21:57:47.916Z,49.04
2022-09-10T22:00:16.112Z,48.83
2022-09-10T22:02:42.574Z,48.62
2022-09-10T22:05:09.114Z,48.91
2022-09-10T22:07:35.535Z,48.60
2022-09-10T22:10:02.052Z,48.66
2022-09-10T22:12:28.938Z,48.77
2022-09-10T22:15:10.479Z,48.73
2022-09-10T22:17:36.899Z,48.58
2022-09-10T22:20:03.937Z,48.48
2022-09-10T22:22:30.538Z,48.76
2022-09-10T22:24:56.943Z,48.72
2022-09-10T22:27:23.360Z,49.21
2022-09-10T22:33:29.946Z,49.07
2022-09-10T22:35:56.361Z,49.31
2022-09-10T22:38:22.811Z,49.37
2022-09-10T22:40:49.304Z,49.47
2022-09-10T22:43:15.716Z,49.55
2022-09-10T22:45:42.106Z,49.72
2022-09-10T22:48:33.226Z,49.73
2022-09-10T22:50:59.829Z,49.97
2022-09-10T22:53:26.260Z,50.13
2022-09-10T22:55:53.837Z,50.13
2022-09-10T22:58:20.331Z,50.44
2022-09-10T23:00:46.798Z,50.46
2022-09-10T23:03:13.244Z,50.42
2022-09-10T23:09:12.999Z,50.83
2022-09-10T23:11:39.907Z,50.83
2022-09-10T23:14:07.736Z,51.53
2022-09-10T23:16:35.472Z,51.08
2022-09-10T23:19:04.023Z,51.07
2022-09-10T23:21:31.470Z,51.02
2022-09-10T23:24:17.539Z,51.18
2022-09-10T23:26:44.130Z,51.55
2022-09-10T23:29:10.578Z,51.32
2022-09-10T23:31:37.857Z,51.35
2022-09-10T23:34:05.721Z,51.39
2022-09-10T23:36:42.612Z,51.38
2022-09-10T23:42:52.606Z,51.42
2022-09-10T23:45:19.022Z,51.53
2022-09-10T23:47:46.737Z,51.19
2022-09-10T23:50:13.420Z,51.06
2022-09-10T23:52:39.850Z,50.98
2022-09-10T23:55:06.501Z,51.25
2022-09-10T23:57:32.928Z,51.23
